La Grande, OR (97850)

7:03 AM PDT on May 23, 2015 (GMT -0700)
La Grande | | Change Station
CLOSE
Current Station
Personal Weather Station
Location: La Grande, OR
Elevation: 2850 ft
Nearby Weather Stations

Elev 2850 ft 45.33 °N, 118.10 °W | Updated 12 seconds ago

Fog
Fog
54.0 °F
Feels Like 54.0 °F
N
0.0
Wind Variable Wind from North
Gusts 0.0 mph

Today
High -- | Low -- °F
--% Chance of Precip.
Yesterday
High -- | Low -- °F
Precip. -- in
5:14 AM 8:24 PM
Waxing Crescent, 30% visible
Pressure 29.98 in
Visibility 10.0 miles
Clouds Few 2300 ft
Scattered Clouds 3500 ft
Overcast 8000 ft
Dew Point 50 °F
Humidity 86%
Rainfall 0.02 in
Snow Depth Not available.
UV 0 out of 12
Pollen 6.50 out of 12
Air Quality Not available.
Flu Activity No Activity
METAR KLGD 231355Z AUTO 30013G17KT 10SM FEW023 SCT035 OVC080 12/07 A2998 RMK AO1

More Conditions Fewer Conditions

Pressure 29.98 in
Visibility 10.0 miles
Clouds Few 2300 ft
Scattered Clouds 3500 ft
Overcast 8000 ft
Dew Point 50 °F
Humidity 86%
Rainfall 0.02 in
Snow Depth Not available.
UV 0 out of 12
Pollen 6.50 out of 12
Air Quality Not available.
Flu Activity No Activity
METAR KLGD 231355Z AUTO 30013G17KT 10SM FEW023 SCT035 OVC080 12/07 A2998 RMK AO1

More Conditions Fewer Conditions

10-Day Weather Forecast

Almanac

Astronomy

May. 23, 2015 Rise Set
Actual Time
Civil Twilight
Nautical Twilight
Astronomical Twilight
Moon
Length of Visible Light
Length of Day
Tomorrow will be .
, % of the Moon is Illuminated

Today's Extremes

State Highs State Lows

Community

WunderPhotos

Upload Photos

1,823,469 photos uploaded!

WunderBlogs® & News

Nearby

Air Quality

  Air Quality AQ Index Pollutant
Not available.

Snow Depth

Station Depth Elevation

Earthquake Activity

City Distance Mag. Time & Date
Minimum magnitude displayed is 2.5.

Coastal Water Temperatures

Place Temperature

Stations

Nearby Weather Stations

Station Location Temp. Windchill Dew Point Humidity Wind Precip. Elev Updated Type